sensor_id;sensor_type;location;lat;lon;timestamp;pressure;altitude;pressure_sealevel;temperature;humidity
39295;BME280;52361;52.100;5.248;2023-07-28T00:01:48;100367.0;;;20.68;100.0
39295;BME280;52361;52.100;5.248;2023-07-28T00:03:24;100361.0;;;20.8;100.0
39295;BME280;52361;52.100;5.248;2023-07-28T00:05:00;100367.0;;;20.89;100.0
39295;BME280;52361;52.100;5.248;2023-07-28T00:06:37;100368.0;;;20.88;100.0
39295;BME280;52361;52.100;5.248;2023-07-28T00:09:49;100367.0;;;20.78;100.0
39295;BME280;52361;52.100;5.248;2023-07-28T00:11:25;100363.0;;;20.81;100.0
39295;BME280;52361;52.100;5.248;2023-07-28T00:13:01;100364.0;;;20.83;100.0
39295;BME280;52361;52.100;5.248;2023-07-28T00:17:49;100358.0;;;20.79;100.0
39295;BME280;52361;52.100;5.248;2023-07-28T00:19:26;100363.0;;;20.74;100.0
39295;BME280;52361;52.100;5.248;2023-07-28T00:22:41;100356.0;;;20.69;100.0
39295;BME280;52361;52.100;5.248;2023-07-28T00:24:18;100355.0;;;20.85;100.0
39295;BME280;52361;52.100;5.248;2023-07-28T00:25:54;100357.0;;;20.87;100.0
39295;BME280;52361;52.100;5.248;2023-07-28T00:27:30;100350.0;;;20.74;100.0
39295;BME280;52361;52.100;5.248;2023-07-28T00:30:42;100357.0;;;20.84;100.0
39295;BME280;52361;52.100;5.248;2023-07-28T00:32:19;100356.0;;;20.75;100.0
39295;BME280;52361;52.100;5.248;2023-07-28T00:33:55;100360.0;;;20.86;100.0
39295;BME280;52361;52.100;5.248;2023-07-28T00:37:08;100357.0;;;20.78;100.0
39295;BME280;52361;52.100;5.248;2023-07-28T00:38:44;100355.0;;;20.79;100.0
39295;BME280;52361;52.100;5.248;2023-07-28T00:40:21;100355.0;;;20.86;100.0
39295;BME280;52361;52.100;5.248;2023-07-28T00:43:33;100358.0;;;20.81;100.0
39295;BME280;52361;52.100;5.248;2023-07-28T00:45:10;100351.0;;;20.78;100.0
39295;BME280;52361;52.100;5.248;2023-07-28T00:46:46;100355.0;;;20.83;100.0
39295;BME280;52361;52.100;5.248;2023-07-28T00:49:59;100355.0;;;20.86;100.0
39295;BME280;52361;52.100;5.248;2023-07-28T00:51:37;100358.0;;;20.68;100.0
39295;BME280;52361;52.100;5.248;2023-07-28T00:53:13;100355.0;;;20.71;100.0
39295;BME280;52361;52.100;5.248;2023-07-28T00:54:50;100350.0;;;20.73;100.0
39295;BME280;52361;52.100;5.248;2023-07-28T00:58:04;100350.0;;;20.68;100.0
39295;BME280;52361;52.100;5.248;2023-07-28T00:59:40;100353.0;;;20.76;100.0
39295;BME280;52361;52.100;5.248;2023-07-28T01:01:16;100362.0;;;20.9;100.0
39295;BME280;52361;52.100;5.248;2023-07-28T01:04:28;100364.0;;;20.73;100.0
39295;BME280;52361;52.100;5.248;2023-07-28T01:06:13;100362.0;;;20.75;100.0
39295;BME280;52361;52.100;5.248;2023-07-28T01:08:01;100367.0;;;20.79;100.0
39295;BME280;52361;52.100;5.248;2023-07-28T01:09:47;100366.0;;;20.85;100.0
39295;BME280;52361;52.100;5.248;2023-07-28T01:11:26;100360.0;;;20.81;100.0
39295;BME280;52361;52.100;5.248;2023-07-28T01:14:38;100363.0;;;20.74;100.0
39295;BME280;52361;52.100;5.248;2023-07-28T01:16:14;100362.0;;;20.82;100.0
39295;BME280;52361;52.100;5.248;2023-07-28T01:17:51;100358.0;;;20.78;100.0
39295;BME280;52361;52.100;5.248;2023-07-28T01:21:05;100361.0;;;20.91;100.0
39295;BME280;52361;52.100;5.248;2023-07-28T01:22:49;100372.0;;;20.91;100.0
39295;BME280;52361;52.100;5.248;2023-07-28T01:24:49;100380.0;;;20.9;100.0
39295;BME280;52361;52.100;5.248;2023-07-28T01:26:32;100374.0;;;20.83;100.0
39295;BME280;52361;52.100;5.248;2023-07-28T01:29:46;100371.0;;;20.67;100.0
39295;BME280;52361;52.100;5.248;2023-07-28T01:31:22;100367.0;;;20.84;100.0
39295;BME280;52361;52.100;5.248;2023-07-28T01:32:58;100371.0;;;20.83;100.0
39295;BME280;52361;52.100;5.248;2023-07-28T01:34:34;100371.0;;;20.89;100.0
39295;BME280;52361;52.100;5.248;2023-07-28T01:37:47;100370.0;;;20.76;100.0
39295;BME280;52361;52.100;5.248;2023-07-28T01:39:23;100374.0;;;20.82;100.0
39295;BME280;52361;52.100;5.248;2023-07-28T01:40:59;100370.0;;;20.82;100.0
39295;BME280;52361;52.100;5.248;2023-07-28T01:44:11;100364.0;;;20.65;100.0
39295;BME280;52361;52.100;5.248;2023-07-28T01:45:47;100365.0;;;20.74;100.0
39295;BME280;52361;52.100;5.248;2023-07-28T01:47:23;100365.0;;;20.74;100.0
39295;BME280;52361;52.100;5.248;2023-07-28T01:50:35;100359.0;;;20.73;100.0
39295;BME280;52361;52.100;5.248;2023-07-28T01:52:11;100362.0;;;20.68;100.0
39295;BME280;52361;52.100;5.248;2023-07-28T01:53:48;100367.0;;;20.62;100.0
39295;BME280;52361;52.100;5.248;2023-07-28T01:55:24;100363.0;;;20.64;100.0
39295;BME280;52361;52.100;5.248;2023-07-28T01:58:36;100369.0;;;20.7;100.0
39295;BME280;52361;52.100;5.248;2023-07-28T02:00:13;100366.0;;;20.55;100.0
39295;BME280;52361;52.100;5.248;2023-07-28T02:01:49;100365.0;;;20.38;100.0
39295;BME280;52361;52.100;5.248;2023-07-28T02:05:02;100370.0;;;20.31;100.0
39295;BME280;52361;52.100;5.248;2023-07-28T02:06:38;100375.0;;;20.29;100.0
39295;BME280;52361;52.100;5.248;2023-07-28T02:08:14;100368.0;;;20.39;100.0
39295;BME280;52361;52.100;5.248;2023-07-28T02:11:26;100371.0;;;20.49;100.0
39295;BME280;52361;52.100;5.248;2023-07-28T02:13:02;100368.0;;;20.46;100.0
39295;BME280;52361;52.100;5.248;2023-07-28T02:14:38;100366.0;;;20.45;100.0
39295;BME280;52361;52.100;5.248;2023-07-28T02:17:51;100364.0;;;20.61;100.0
39295;BME280;52361;52.100;5.248;2023-07-28T02:19:27;100359.0;;;20.59;100.0
39295;BME280;52361;52.100;5.248;2023-07-28T02:21:03;100367.0;;;20.52;100.0
39295;BME280;52361;52.100;5.248;2023-07-28T02:22:39;100367.0;;;20.5;100.0
39295;BME280;52361;52.100;5.248;2023-07-28T02:25:51;100369.0;;;20.49;100.0
39295;BME280;52361;52.100;5.248;2023-07-28T02:27:27;100368.0;;;20.49;100.0
39295;BME280;52361;52.100;5.248;2023-07-28T02:29:04;100373.0;;;20.48;100.0
39295;BME280;52361;52.100;5.248;2023-07-28T02:32:17;100370.0;;;20.27;100.0
39295;BME280;52361;52.100;5.248;2023-07-28T02:33:53;100367.0;;;20.3;100.0
39295;BME280;52361;52.100;5.248;2023-07-28T02:35:29;100361.0;;;20.41;100.0
39295;BME280;52361;52.100;5.248;2023-07-28T02:38:41;100366.0;;;20.43;100.0
39295;BME280;52361;52.100;5.248;2023-07-28T02:40:17;100365.0;;;20.43;100.0
39295;BME280;52361;52.100;5.248;2023-07-28T02:41:53;100362.0;;;20.51;100.0
39295;BME280;52361;52.100;5.248;2023-07-28T02:43:30;100364.0;;;20.48;100.0
39295;BME280;52361;52.100;5.248;2023-07-28T02:46:43;100367.0;;;20.55;100.0
39295;BME280;52361;52.100;5.248;2023-07-28T02:48:19;100364.0;;;20.45;100.0
39295;BME280;52361;52.100;5.248;2023-07-28T02:49:55;100371.0;;;20.5;100.0
39295;BME280;52361;52.100;5.248;2023-07-28T02:53:07;100374.0;;;20.53;100.0
39295;BME280;52361;52.100;5.248;2023-07-28T02:54:43;100375.0;;;20.43;100.0
39295;BME280;52361;52.100;5.248;2023-07-28T02:56:20;100378.0;;;20.46;100.0
39295;BME280;52361;52.100;5.248;2023-07-28T02:59:32;100373.0;;;20.58;100.0
39295;BME280;52361;52.100;5.248;2023-07-28T03:01:08;100372.0;;;20.47;100.0
39295;BME280;52361;52.100;5.248;2023-07-28T03:02:44;100374.0;;;20.46;100.0
39295;BME280;52361;52.100;5.248;2023-07-28T03:05:56;100380.0;;;20.43;100.0
39295;BME280;52361;52.100;5.248;2023-07-28T03:07:32;100378.0;;;20.41;100.0
39295;BME280;52361;52.100;5.248;2023-07-28T03:09:09;100382.0;;;20.41;100.0
39295;BME280;52361;52.100;5.248;2023-07-28T03:10:45;100386.0;;;20.49;100.0
39295;BME280;52361;52.100;5.248;2023-07-28T03:13:57;100387.0;;;20.64;100.0
39295;BME280;52361;52.100;5.248;2023-07-28T03:15:33;100386.0;;;20.63;100.0
39295;BME280;52361;52.100;5.248;2023-07-28T03:17:09;100386.0;;;20.69;100.0
39295;BME280;52361;52.100;5.248;2023-07-28T03:20:22;100386.0;;;20.71;100.0
39295;BME280;52361;52.100;5.248;2023-07-28T03:21:58;100384.0;;;20.77;100.0
39295;BME280;52361;52.100;5.248;2023-07-28T03:23:34;100391.0;;;20.71;100.0
39295;BME280;52361;52.100;5.248;2023-07-28T03:26:48;100390.0;;;20.7;100.0
39295;BME280;52361;52.100;5.248;2023-07-28T03:28:24;100397.0;;;20.64;100.0
39295;BME280;52361;52.100;5.248;2023-07-28T03:30:01;100393.0;;;20.62;100.0
39295;BME280;52361;52.100;5.248;2023-07-28T03:31:37;100395.0;;;20.7;100.0
39295;BME280;52361;52.100;5.248;2023-07-28T03:34:50;100399.0;;;20.66;100.0
39295;BME280;52361;52.100;5.248;2023-07-28T03:36:27;100398.0;;;20.74;100.0
39295;BME280;52361;52.100;5.248;2023-07-28T03:38:03;100401.0;;;20.64;100.0
39295;BME280;52361;52.100;5.248;2023-07-28T03:41:15;100402.0;;;20.68;100.0
39295;BME280;52361;52.100;5.248;2023-07-28T03:42:51;100406.0;;;20.76;100.0
39295;BME280;52361;52.100;5.248;2023-07-28T03:44:28;100409.0;;;20.66;100.0
39295;BME280;52361;52.100;5.248;2023-07-28T03:47:41;100412.0;;;20.64;100.0
39295;BME280;52361;52.100;5.248;2023-07-28T03:49:18;100410.0;;;20.62;100.0
39295;BME280;52361;52.100;5.248;2023-07-28T03:50:54;100413.0;;;20.62;100.0
39295;BME280;52361;52.100;5.248;2023-07-28T03:54:06;100411.0;;;20.53;100.0
39295;BME280;52361;52.100;5.248;2023-07-28T03:55:42;100409.0;;;20.51;100.0
39295;BME280;52361;52.100;5.248;2023-07-28T03:57:18;100411.0;;;20.61;100.0
39295;BME280;52361;52.100;5.248;2023-07-28T03:58:54;100416.0;;;20.66;100.0
39295;BME280;52361;52.100;5.248;2023-07-28T04:02:07;100409.0;;;20.75;100.0
39295;BME280;52361;52.100;5.248;2023-07-28T04:03:43;100409.0;;;20.71;100.0
39295;BME280;52361;52.100;5.248;2023-07-28T04:05:19;100413.0;;;20.67;100.0
39295;BME280;52361;52.100;5.248;2023-07-28T04:08:31;100416.0;;;20.56;100.0
39295;BME280;52361;52.100;5.248;2023-07-28T04:10:08;100411.0;;;20.6;100.0
39295;BME280;52361;52.100;5.248;2023-07-28T04:11:44;100412.0;;;20.62;100.0
39295;BME280;52361;52.100;5.248;2023-07-28T04:14:56;100412.0;;;20.56;100.0
39295;BME280;52361;52.100;5.248;2023-07-28T04:16:32;100415.0;;;20.58;100.0
39295;BME280;52361;52.100;5.248;2023-07-28T04:18:09;100415.0;;;20.65;100.0
39295;BME280;52361;52.100;5.248;2023-07-28T04:19:45;100412.0;;;20.71;100.0
39295;BME280;52361;52.100;5.248;2023-07-28T04:22:57;100415.0;;;20.64;100.0
39295;BME280;52361;52.100;5.248;2023-07-28T04:24:34;100417.0;;;20.64;100.0
39295;BME280;52361;52.100;5.248;2023-07-28T04:26:10;100418.0;;;20.58;100.0
39295;BME280;52361;52.100;5.248;2023-07-28T04:29:22;100423.0;;;20.64;100.0
39295;BME280;52361;52.100;5.248;2023-07-28T04:30:58;100419.0;;;20.63;100.0
39295;BME280;52361;52.100;5.248;2023-07-28T04:32:34;100418.0;;;20.66;100.0
39295;BME280;52361;52.100;5.248;2023-07-28T04:35:46;100423.0;;;20.62;100.0
39295;BME280;52361;52.100;5.248;2023-07-28T04:37:23;100430.0;;;20.59;100.0
39295;BME280;52361;52.100;5.248;2023-07-28T04:38:59;100431.0;;;20.72;100.0
39295;BME280;52361;52.100;5.248;2023-07-28T04:42:11;100431.0;;;20.64;100.0
39295;BME280;52361;52.100;5.248;2023-07-28T04:43:47;100430.0;;;20.61;100.0
39295;BME280;52361;52.100;5.248;2023-07-28T04:45:23;100430.0;;;20.56;100.0
39295;BME280;52361;52.100;5.248;2023-07-28T04:46:59;100424.0;;;20.72;100.0
39295;BME280;52361;52.100;5.248;2023-07-28T04:50:12;100430.0;;;20.69;100.0
39295;BME280;52361;52.100;5.248;2023-07-28T04:51:48;100431.0;;;20.68;100.0
39295;BME280;52361;52.100;5.248;2023-07-28T04:53:24;100437.0;;;20.66;100.0
39295;BME280;52361;52.100;5.248;2023-07-28T04:56:36;100437.0;;;20.64;100.0
39295;BME280;52361;52.100;5.248;2023-07-28T04:58:12;100441.0;;;20.74;100.0
39295;BME280;52361;52.100;5.248;2023-07-28T04:59:48;100437.0;;;20.78;100.0
39295;BME280;52361;52.100;5.248;2023-07-28T05:03:02;100441.0;;;20.84;100.0
39295;BME280;52361;52.100;5.248;2023-07-28T05:04:38;100439.0;;;20.75;100.0
39295;BME280;52361;52.100;5.248;2023-07-28T05:06:14;100437.0;;;20.78;100.0
39295;BME280;52361;52.100;5.248;2023-07-28T05:07:50;100445.0;;;20.89;100.0
39295;BME280;52361;52.100;5.248;2023-07-28T05:11:02;100444.0;;;20.88;100.0
39295;BME280;52361;52.100;5.248;2023-07-28T05:12:39;100446.0;;;20.87;100.0
39295;BME280;52361;52.100;5.248;2023-07-28T05:14:15;100446.0;;;20.94;100.0
39295;BME280;52361;52.100;5.248;2023-07-28T05:17:27;100449.0;;;20.91;100.0
39295;BME280;52361;52.100;5.248;2023-07-28T05:19:05;100445.0;;;20.88;100.0
39295;BME280;52361;52.100;5.248;2023-07-28T05:20:43;100447.0;;;20.77;100.0
39295;BME280;52361;52.100;5.248;2023-07-28T05:23:55;100446.0;;;20.74;100.0
39295;BME280;52361;52.100;5.248;2023-07-28T05:25:32;100445.0;;;20.82;100.0
39295;BME280;52361;52.100;5.248;2023-07-28T05:27:08;100447.0;;;20.87;100.0
39295;BME280;52361;52.100;5.248;2023-07-28T05:30:20;100450.0;;;20.9;100.0
39295;BME280;52361;52.100;5.248;2023-07-28T05:31:58;100447.0;;;20.97;100.0
39295;BME280;52361;52.100;5.248;2023-07-28T05:33:34;100445.0;;;20.95;100.0
39295;BME280;52361;52.100;5.248;2023-07-28T05:35:10;100442.0;;;20.83;100.0
39295;BME280;52361;52.100;5.248;2023-07-28T05:38:22;100445.0;;;20.81;100.0
39295;BME280;52361;52.100;5.248;2023-07-28T05:39:59;100447.0;;;20.92;100.0
39295;BME280;52361;52.100;5.248;2023-07-28T05:41:36;100449.0;;;20.82;100.0
39295;BME280;52361;52.100;5.248;2023-07-28T05:44:48;100452.0;;;20.87;100.0
39295;BME280;52361;52.100;5.248;2023-07-28T05:46:24;100452.0;;;20.9;100.0
39295;BME280;52361;52.100;5.248;2023-07-28T05:48:00;100458.0;;;20.9;100.0
39295;BME280;52361;52.100;5.248;2023-07-28T05:51:14;100462.0;;;20.95;100.0
39295;BME280;52361;52.100;5.248;2023-07-28T05:52:50;100462.0;;;21.08;100.0
39295;BME280;52361;52.100;5.248;2023-07-28T05:54:26;100464.0;;;21.02;100.0
39295;BME280;52361;52.100;5.248;2023-07-28T05:56:02;100467.0;;;21.08;100.0
39295;BME280;52361;52.100;5.248;2023-07-28T05:59:14;100466.0;;;21.07;100.0
39295;BME280;52361;52.100;5.248;2023-07-28T06:00:50;100473.0;;;21.05;100.0
39295;BME280;52361;52.100;5.248;2023-07-28T06:02:26;100470.0;;;21.04;100.0
39295;BME280;52361;52.100;5.248;2023-07-28T06:07:15;100477.0;;;21.14;100.0
39295;BME280;52361;52.100;5.248;2023-07-28T06:08:51;100471.0;;;21.14;100.0
39295;BME280;52361;52.100;5.248;2023-07-28T06:12:04;100474.0;;;21.06;100.0
39295;BME280;52361;52.100;5.248;2023-07-28T06:13:40;100472.0;;;21.11;100.0
39295;BME280;52361;52.100;5.248;2023-07-28T06:15:17;100477.0;;;21.1;100.0
39295;BME280;52361;52.100;5.248;2023-07-28T06:16:53;100480.0;;;21.2;100.0
39295;BME280;52361;52.100;5.248;2023-07-28T06:20:06;100478.0;;;21.16;100.0
39295;BME280;52361;52.100;5.248;2023-07-28T06:21:42;100482.0;;;21.18;100.0
39295;BME280;52361;52.100;5.248;2023-07-28T06:23:18;100490.0;;;21.12;100.0
39295;BME280;52361;52.100;5.248;2023-07-28T06:26:30;100492.0;;;21.23;100.0
39295;BME280;52361;52.100;5.248;2023-07-28T06:28:06;100496.0;;;21.17;100.0
39295;BME280;52361;52.100;5.248;2023-07-28T06:29:43;100494.0;;;21.22;100.0
39295;BME280;52361;52.100;5.248;2023-07-28T06:32:55;100494.0;;;21.19;100.0
39295;BME280;52361;52.100;5.248;2023-07-28T06:34:31;100495.0;;;21.12;100.0
39295;BME280;52361;52.100;5.248;2023-07-28T06:36:07;100494.0;;;21.23;100.0
39295;BME280;52361;52.100;5.248;2023-07-28T06:39:20;100499.0;;;21.23;100.0
39295;BME280;52361;52.100;5.248;2023-07-28T06:40:56;100505.0;;;21.29;100.0
39295;BME280;52361;52.100;5.248;2023-07-28T06:42:32;100507.0;;;21.23;100.0
39295;BME280;52361;52.100;5.248;2023-07-28T06:44:09;100512.0;;;21.26;100.0
39295;BME280;52361;52.100;5.248;2023-07-28T06:47:21;100512.0;;;21.22;100.0
39295;BME280;52361;52.100;5.248;2023-07-28T06:48:57;100513.0;;;21.06;100.0
39295;BME280;52361;52.100;5.248;2023-07-28T06:50:33;100518.0;;;21.19;100.0
39295;BME280;52361;52.100;5.248;2023-07-28T06:53:46;100520.0;;;21.26;100.0
39295;BME280;52361;52.100;5.248;2023-07-28T06:55:22;100520.0;;;21.23;100.0
39295;BME280;52361;52.100;5.248;2023-07-28T06:56:59;100523.0;;;21.23;100.0
39295;BME280;52361;52.100;5.248;2023-07-28T07:00:12;100524.0;;;21.28;100.0
39295;BME280;52361;52.100;5.248;2023-07-28T07:01:48;100523.0;;;21.21;100.0
39295;BME280;52361;52.100;5.248;2023-07-28T07:03:24;100526.0;;;21.25;100.0
39295;BME280;52361;52.100;5.248;2023-07-28T07:05:01;100528.0;;;21.27;100.0
39295;BME280;52361;52.100;5.248;2023-07-28T07:08:13;100530.0;;;21.3;100.0
39295;BME280;52361;52.100;5.248;2023-07-28T07:09:49;100530.0;;;21.34;100.0
39295;BME280;52361;52.100;5.248;2023-07-28T07:11:25;100531.0;;;21.44;100.0
39295;BME280;52361;52.100;5.248;2023-07-28T07:14:37;100530.0;;;21.39;100.0
39295;BME280;52361;52.100;5.248;2023-07-28T07:16:14;100535.0;;;21.42;100.0
39295;BME280;52361;52.100;5.248;2023-07-28T07:17:51;100532.0;;;21.39;100.0
39295;BME280;52361;52.100;5.248;2023-07-28T07:21:04;100535.0;;;21.39;100.0
39295;BME280;52361;52.100;5.248;2023-07-28T07:22:40;100533.0;;;21.44;100.0
39295;BME280;52361;52.100;5.248;2023-07-28T07:24:16;100538.0;;;21.58;100.0
39295;BME280;52361;52.100;5.248;2023-07-28T07:27:28;100536.0;;;21.56;100.0
39295;BME280;52361;52.100;5.248;2023-07-28T07:29:04;100542.0;;;21.55;100.0
39295;BME280;52361;52.100;5.248;2023-07-28T07:30:41;100548.0;;;21.66;100.0
39295;BME280;52361;52.100;5.248;2023-07-28T07:32:17;100547.0;;;21.56;100.0
39295;BME280;52361;52.100;5.248;2023-07-28T07:35:29;100551.0;;;21.56;100.0
39295;BME280;52361;52.100;5.248;2023-07-28T07:37:05;100550.0;;;21.7;100.0
39295;BME280;52361;52.100;5.248;2023-07-28T07:38:41;100555.0;;;21.75;100.0
39295;BME280;52361;52.100;5.248;2023-07-28T07:41:53;100557.0;;;21.76;100.0
39295;BME280;52361;52.100;5.248;2023-07-28T07:43:30;100561.0;;;21.9;100.0
39295;BME280;52361;52.100;5.248;2023-07-28T07:45:07;100566.0;;;21.83;100.0
39295;BME280;52361;52.100;5.248;2023-07-28T07:48:19;100567.0;;;21.74;100.0
39295;BME280;52361;52.100;5.248;2023-07-28T07:49:55;100566.0;;;21.71;100.0
39295;BME280;52361;52.100;5.248;2023-07-28T07:51:31;100566.0;;;21.76;100.0
39295;BME280;52361;52.100;5.248;2023-07-28T07:53:07;100569.0;;;21.84;100.0
39295;BME280;52361;52.100;5.248;2023-07-28T07:56:20;100570.0;;;21.92;100.0
39295;BME280;52361;52.100;5.248;2023-07-28T07:59:32;100580.0;;;22.01;100.0
39295;BME280;52361;52.100;5.248;2023-07-28T08:02:44;100578.0;;;22.04;100.0
39295;BME280;52361;52.100;5.248;2023-07-28T08:04:20;100583.0;;;22.07;100.0
39295;BME280;52361;52.100;5.248;2023-07-28T08:05:57;100581.0;;;22.11;100.0
39295;BME280;52361;52.100;5.248;2023-07-28T08:09:09;100590.0;;;22.21;100.0
39295;BME280;52361;52.100;5.248;2023-07-28T08:10:45;100587.0;;;22.25;100.0
39295;BME280;52361;52.100;5.248;2023-07-28T08:12:21;100592.0;;;22.28;100.0
39295;BME280;52361;52.100;5.248;2023-07-28T08:15:33;100597.0;;;22.24;100.0
39295;BME280;52361;52.100;5.248;2023-07-28T08:17:09;100595.0;;;22.39;100.0
39295;BME280;52361;52.100;5.248;2023-07-28T08:18:46;100596.0;;;22.44;100.0
39295;BME280;52361;52.100;5.248;2023-07-28T08:20:22;100600.0;;;22.49;100.0
39295;BME280;52361;52.100;5.248;2023-07-28T08:23:35;100593.0;;;22.58;100.0
39295;BME280;52361;52.100;5.248;2023-07-28T08:25:11;100597.0;;;22.64;100.0
39295;BME280;52361;52.100;5.248;2023-07-28T08:26:47;100599.0;;;22.54;100.0
39295;BME280;52361;52.100;5.248;2023-07-28T08:30:00;100596.0;;;22.64;100.0
39295;BME280;52361;52.100;5.248;2023-07-28T08:31:36;100597.0;;;22.58;100.0
39295;BME280;52361;52.100;5.248;2023-07-28T08:33:12;100597.0;;;22.6;100.0
39295;BME280;52361;52.100;5.248;2023-07-28T08:36:25;100606.0;;;22.63;100.0
39295;BME280;52361;52.100;5.248;2023-07-28T08:38:01;100607.0;;;22.7;100.0
39295;BME280;52361;52.100;5.248;2023-07-28T08:39:37;100614.0;;;22.64;100.0
39295;BME280;52361;52.100;5.248;2023-07-28T08:41:13;100616.0;;;22.64;100.0
39295;BME280;52361;52.100;5.248;2023-07-28T08:44:29;100612.0;;;22.75;100.0
39295;BME280;52361;52.100;5.248;2023-07-28T08:46:05;100613.0;;;22.71;100.0
39295;BME280;52361;52.100;5.248;2023-07-28T08:47:41;100615.0;;;22.66;100.0
39295;BME280;52361;52.100;5.248;2023-07-28T08:50:54;100616.0;;;22.65;100.0
39295;BME280;52361;52.100;5.248;2023-07-28T08:54:06;100610.0;;;23.0;100.0
39295;BME280;52361;52.100;5.248;2023-07-28T08:57:18;100606.0;;;23.38;100.0
39295;BME280;52361;52.100;5.248;2023-07-28T08:58:58;100609.0;;;23.77;100.0
39295;BME280;52361;52.100;5.248;2023-07-28T09:00:36;100608.0;;;24.29;100.0
39295;BME280;52361;52.100;5.248;2023-07-28T09:02:15;100609.0;;;24.71;100.0
39295;BME280;52361;52.100;5.248;2023-07-28T09:05:28;100611.0;;;25.23;100.0
39295;BME280;52361;52.100;5.248;2023-07-28T09:07:05;100618.0;;;25.5;100.0
39295;BME280;52361;52.100;5.248;2023-07-28T09:08:43;100614.0;;;25.72;100.0
39295;BME280;52361;52.100;5.248;2023-07-28T09:11:55;100617.0;;;26.07;100.0
39295;BME280;52361;52.100;5.248;2023-07-28T09:13:36;100620.0;;;26.31;100.0
39295;BME280;52361;52.100;5.248;2023-07-28T09:15:13;100623.0;;;26.5;100.0
39295;BME280;52361;52.100;5.248;2023-07-28T09:16:49;100619.0;;;26.52;100.0
39295;BME280;52361;52.100;5.248;2023-07-28T09:20:01;100620.0;;;26.51;100.0
39295;BME280;52361;52.100;5.248;2023-07-28T09:21:38;100620.0;;;26.14;100.0
39295;BME280;52361;52.100;5.248;2023-07-28T09:23:16;100624.0;;;26.38;100.0
39295;BME280;52361;52.100;5.248;2023-07-28T09:26:36;100623.0;;;26.33;99.61
39295;BME280;52361;52.100;5.248;2023-07-28T09:28:13;100627.0;;;26.02;100.0
39295;BME280;52361;52.100;5.248;2023-07-28T09:29:50;100621.0;;;25.94;100.0
39295;BME280;52361;52.100;5.248;2023-07-28T09:31:29;100624.0;;;25.7;100.0
39295;BME280;52361;52.100;5.248;2023-07-28T09:34:42;100627.0;;;25.74;100.0
39295;BME280;52361;52.100;5.248;2023-07-28T09:36:18;100623.0;;;25.69;100.0
39295;BME280;52361;52.100;5.248;2023-07-28T09:37:55;100622.0;;;25.57;100.0
39295;BME280;52361;52.100;5.248;2023-07-28T09:41:11;100623.0;;;25.73;100.0
39295;BME280;52361;52.100;5.248;2023-07-28T09:42:48;100621.0;;;25.85;100.0
39295;BME280;52361;52.100;5.248;2023-07-28T09:44:25;100622.0;;;25.47;100.0
39295;BME280;52361;52.100;5.248;2023-07-28T09:47:40;100623.0;;;25.24;100.0
39295;BME280;52361;52.100;5.248;2023-07-28T09:49:21;100625.0;;;25.51;100.0
39295;BME280;52361;52.100;5.248;2023-07-28T09:51:06;100630.0;;;25.71;100.0
39295;BME280;52361;52.100;5.248;2023-07-28T09:52:49;100630.0;;;25.82;100.0
39295;BME280;52361;52.100;5.248;2023-07-28T09:54:30;100630.0;;;25.87;100.0
39295;BME280;52361;52.100;5.248;2023-07-28T09:57:51;100633.0;;;25.82;100.0
39295;BME280;52361;52.100;5.248;2023-07-28T09:59:32;100634.0;;;25.81;99.26
39295;BME280;52361;52.100;5.248;2023-07-28T10:01:13;100632.0;;;25.72;98.39
39295;BME280;52361;52.100;5.248;2023-07-28T10:02:50;100631.0;;;25.82;100.0
39295;BME280;52361;52.100;5.248;2023-07-28T10:06:03;100626.0;;;26.01;99.81
39295;BME280;52361;52.100;5.248;2023-07-28T10:07:41;100627.0;;;26.15;98.67
39295;BME280;52361;52.100;5.248;2023-07-28T10:09:21;100628.0;;;26.22;96.66
39295;BME280;52361;52.100;5.248;2023-07-28T10:12:40;100623.0;;;26.18;100.0
39295;BME280;52361;52.100;5.248;2023-07-28T10:14:25;100627.0;;;26.45;98.32
39295;BME280;52361;52.100;5.248;2023-07-28T10:16:01;100630.0;;;26.74;100.0
39295;BME280;52361;52.100;5.248;2023-07-28T10:17:37;100631.0;;;27.06;96.1
39295;BME280;52361;52.100;5.248;2023-07-28T10:21:04;100628.0;;;27.46;98.95
39295;BME280;52361;52.100;5.248;2023-07-28T10:22:43;100637.0;;;27.6;91.95
39295;BME280;52361;52.100;5.248;2023-07-28T10:24:20;100631.0;;;27.74;86.82
39295;BME280;52361;52.100;5.248;2023-07-28T10:26:35;100633.0;;;27.97;85.36
39295;BME280;52361;52.100;5.248;2023-07-28T10:28:26;100635.0;;;28.18;84.77
39295;BME280;52361;52.100;5.248;2023-07-28T10:30:07;100637.0;;;28.09;84.48
39295;BME280;52361;52.100;5.248;2023-07-28T10:33:29;100627.0;;;28.1;84.31
39295;BME280;52361;52.100;5.248;2023-07-28T10:35:07;100638.0;;;28.02;84.65
39295;BME280;52361;52.100;5.248;2023-07-28T10:36:44;100634.0;;;28.11;83.12
39295;BME280;52361;52.100;5.248;2023-07-28T10:40:26;100635.0;;;28.43;86.77
39295;BME280;52361;52.100;5.248;2023-07-28T10:42:05;100630.0;;;28.54;83.72
39295;BME280;52361;52.100;5.248;2023-07-28T10:43:42;100631.0;;;28.78;81.25
39295;BME280;52361;52.100;5.248;2023-07-28T10:45:19;100628.0;;;28.89;86.99
39295;BME280;52361;52.100;5.248;2023-07-28T10:46:56;100637.0;;;29.11;82.8
39295;BME280;52361;52.100;5.248;2023-07-28T10:50:12;100639.0;;;29.13;79.66
39295;BME280;52361;52.100;5.248;2023-07-28T10:51:48;100637.0;;;29.26;80.97
39295;BME280;52361;52.100;5.248;2023-07-28T10:53:24;100642.0;;;28.83;81.22
39295;BME280;52361;52.100;5.248;2023-07-28T10:56:36;100647.0;;;28.93;82.13
39295;BME280;52361;52.100;5.248;2023-07-28T10:58:12;100643.0;;;28.41;85.08
39295;BME280;52361;52.100;5.248;2023-07-28T10:59:50;100643.0;;;28.23;84.07
39295;BME280;52361;52.100;5.248;2023-07-28T11:01:31;100643.0;;;27.9;84.47
39295;BME280;52361;52.100;5.248;2023-07-28T11:04:46;100647.0;;;27.79;89.1
39295;BME280;52361;52.100;5.248;2023-07-28T11:06:22;100648.0;;;27.59;90.14
39295;BME280;52361;52.100;5.248;2023-07-28T11:07:58;100652.0;;;27.53;89.41
39295;BME280;52361;52.100;5.248;2023-07-28T11:11:16;100649.0;;;27.35;90.32
39295;BME280;52361;52.100;5.248;2023-07-28T11:12:52;100657.0;;;27.31;90.46
39295;BME280;52361;52.100;5.248;2023-07-28T11:14:29;100651.0;;;27.18;90.3